This is the latest recevied weather packets stored in our database for station/object IU4KCH-20. If no packets are shown the sender has not sent any weather packets the latest 10 day(s).
| Time | Temp. | Humidity | Pressure | Rain* | Wind** | Luminosity | Snow |
|---|---|---|---|---|---|---|---|
| 1777515001 | 15.56° C | 74% | 1019 hPa | - | - | - | - |
| 1777513200 | 16.11° C | 74% | 1018.9 hPa | - | - | - | - |
| 1777512299 | 16.67° C | 74% | 1018.9 hPa | - | - | - | - |
| 1777510497 | 16.11° C | 75% | 1018.9 hPa | - | - | - | - |
| 1777509596 | 16.11° C | 75% | 1018.8 hPa | - | - | - | - |
| 1777508696 | 17.22° C | 70% | 1018.6 hPa | - | - | - | - |
| 1777507795 | 17.22° C | 67% | 1018.7 hPa | - | - | - | - |
| 1777506894 | 17.22° C | 65% | 1018.7 hPa | - | - | - | - |
| 1777505993 | 17.78° C | 65% | 1018.4 hPa | - | - | - | - |
| 1777505092 | 17.78° C | 64% | 1018.1 hPa | - | - | - | - |
| 1777504191 | 17.78° C | 61% | 1017.9 hPa | - | - | - | - |
| 1777503291 | 17.78° C | 60% | 1017.9 hPa | - | - | - | - |
| 1777502390 | 18.33° C | 59% | 1017.6 hPa | - | - | - | - |
| 1777501489 | 18.33° C | 57% | 1017.5 hPa | - | - | - | - |
| 1777499687 | 20° C | 51% | 1016.7 hPa | - | - | - | - |
| 1777498787 | 19.44° C | 51% | 1016.6 hPa | - | - | - | - |
| 1777497886 | 20° C | 50% | 1016.5 hPa | - | - | - | - |
| 1777496985 | 20° C | 49% | 1016.2 hPa | - | - | - | - |
| 1777496084 | 20.56° C | 48% | 1016.1 hPa | - | - | - | - |
| 1777495183 | 20.56° C | 49% | 1015.9 hPa | - | - | - | - |
| 1777494282 | 20.56° C | 48% | 1015.8 hPa | - | - | - | - |
| 1777493382 | 20.56° C | 48% | 1015.6 hPa | - | - | - | - |
| 1777492481 | 20.56° C | 48% | 1015.4 hPa | - | - | - | - |
| 1777491580 | 21.11° C | 46% | 1015.1 hPa | - | - | - | - |
| 1777490679 | 21.11° C | 47% | 1014.9 hPa | - | - | - | - |
* Rain since midnight (hover to see other rain measurements)
** Current wind speed in m/s (hover to see current wind gust speed)